Time;durP1;ratioP1;P1;durP2;ratioP2;P2;SDS_P1;SDS_P2;PMS_P1;PMS_P2;Temp;Humidity;BMP_temperature;BMP_pressure;BME280_temperature;BME280_humidity;BME280_pressure;Samples;Min_cycle;Max_cycle;Signal;HPM_P1;HPM_P2
2022/06/06 00:02:15;;;;;;;;;;;;;;;20.56;57.75;101212.31;7274406;19;152420;-55
2022/06/06 00:04:42;;;;;;;;;;;;;;;20.57;57.79;101216.78;7280263;19;152530;-55
2022/06/06 00:07:09;;;;;;;;;;;;;;;20.55;57.57;101210.63;7284983;19;154397;-55
2022/06/06 00:09:42;;;;;;;;;;;;;;;20.55;57.74;101202.22;7286672;19;153549;-55
2022/06/06 00:12:09;;;;;;;;;;;;;;;20.54;57.75;101204.19;7287710;19;153443;-55
2022/06/06 00:14:36;;;;;;;;;;;;;;;20.53;57.79;101205.34;7294566;19;152178;-55
2022/06/06 00:17:03;;;;;;;;;;;;;;;20.54;57.62;101212.59;7287594;19;151883;-56
2022/06/06 00:19:41;;;;;;;;;;;;;;;20.55;57.90;101203.03;7286677;19;153242;-57
2022/06/06 00:22:13;;;;;;;;;;;;;;;20.70;57.46;101202.84;7289125;19;152946;-55
2022/06/06 00:24:40;;;;;;;;;;;;;;;20.63;57.61;101199.56;7288318;19;152983;-55
2022/06/06 00:27:07;;;;;;;;;;;;;;;20.60;58.00;101200.16;7285420;19;153236;-54
2022/06/06 00:29:41;;;;;;;;;;;;;;;20.58;58.05;101202.44;7288977;19;152040;-55
2022/06/06 00:34:54;;;;;;;;;;;;;;;20.60;58.53;101197.34;7294190;19;153356;-55
2022/06/06 00:37:23;;;;;;;;;;;;;;;20.59;58.70;101192.03;7285081;19;154244;-56
2022/06/06 00:39:51;;;;;;;;;;;;;;;20.64;58.77;101198.41;7285011;19;152490;-55
2022/06/06 00:42:19;;;;;;;;;;;;;;;20.64;58.50;101189.16;7286038;19;152610;-56
2022/06/06 00:44:46;;;;;;;;;;;;;;;20.63;58.55;101187.47;7286887;19;152507;-55
2022/06/06 00:47:16;;;;;;;;;;;;;;;20.61;58.53;101187.81;7286822;19;153917;-56
2022/06/06 00:49:54;;;;;;;;;;;;;;;20.59;58.61;101180.81;7284850;19;152104;-55
2022/06/06 00:52:26;;;;;;;;;;;;;;;20.58;58.75;101168.75;7286676;19;153816;-54
2022/06/06 00:54:56;;;;;;;;;;;;;;;20.59;59.05;101176.03;7286472;19;155061;-55
2022/06/06 00:57:25;;;;;;;;;;;;;;;20.60;58.73;101171.25;7294196;19;152225;-54
2022/06/06 00:59:53;;;;;;;;;;;;;;;20.59;58.62;101172.38;7287153;19;154072;-55
2022/06/06 01:02:20;;;;;;;;;;;;;;;20.58;58.72;101174.34;7286155;19;151582;-55
2022/06/06 01:04:47;;;;;;;;;;;;;;;20.59;58.77;101176.03;7286118;19;152555;-55
2022/06/06 01:07:27;;;;;;;;;;;;;;;20.59;58.86;101175.19;7285595;19;153337;-55
2022/06/06 01:09:54;;;;;;;;;;;;;;;20.58;59.21;101165.13;7283464;19;151772;-55
2022/06/06 01:12:21;;;;;;;;;;;;;;;20.58;59.20;101163.13;7286183;19;152773;-55
2022/06/06 01:14:51;;;;;;;;;;;;;;;20.61;58.85;101168.16;7283948;19;153191;-55
2022/06/06 01:17:18;;;;;;;;;;;;;;;20.59;58.74;101159.19;7286290;19;151643;-56
2022/06/06 01:19:54;;;;;;;;;;;;;;;20.59;59.09;101161.16;7292590;19;153244;-55
2022/06/06 01:22:31;;;;;;;;;;;;;;;20.60;58.80;101154.41;7285537;19;152163;-55
2022/06/06 01:25:16;;;;;;;;;;;;;;;20.60;58.93;101157.22;7285130;19;153135;-55
2022/06/06 01:27:43;;;;;;;;;;;;;;;20.61;58.87;101151.31;7285520;19;153942;-55
2022/06/06 01:30:11;;;;;;;;;;;;;;;20.59;59.16;101159.19;7286161;19;152097;-55
2022/06/06 01:32:43;;;;;;;;;;;;;;;20.57;59.22;101153.06;7286431;19;152598;-55
2022/06/06 01:35:11;;;;;;;;;;;;;;;20.58;59.42;101151.91;7285786;19;153903;-55
2022/06/06 01:37:40;;;;;;;;;;;;;;;20.57;59.53;101150.25;7285145;19;151872;-55
2022/06/06 01:40:12;;;;;;;;;;;;;;;20.61;59.02;101154.13;7285833;19;153303;-55
2022/06/06 01:42:48;;;;;;;;;;;;;;;20.65;58.96;101151.53;7290357;19;153267;-55
2022/06/06 01:45:38;;;;;;;;;;;;;;;20.63;59.24;101154.63;7286887;19;152541;-55
2022/06/06 01:48:08;;;;;;;;;;;;;;;20.63;59.07;101153.78;7282900;19;153601;-55
2022/06/06 01:50:36;;;;;;;;;;;;;;;20.65;58.95;101151.53;7285497;19;151960;-55
2022/06/06 01:53:05;;;;;;;;;;;;;;;20.66;59.13;101140.00;7284136;19;153307;-55
2022/06/06 01:55:33;;;;;;;;;;;;;;;20.62;59.44;101144.56;7284004;19;153351;-55
2022/06/06 01:58:02;;;;;;;;;;;;;;;20.63;59.31;101143.41;7280555;19;151781;-55
2022/06/06 02:00:30;;;;;;;;;;;;;;;20.59;59.52;101139.53;7285518;19;153333;-55
2022/06/06 02:02:57;;;;;;;;;;;;;;;20.63;59.09;101137.78;7284276;19;154099;-55
2022/06/06 02:05:24;;;;;;;;;;;;;;;20.65;59.30;101131.88;7290267;19;152030;-54
2022/06/06 02:07:51;;;;;;;;;;;;;;;20.62;59.10;101130.53;7282507;19;153208;-55
2022/06/06 02:10:18;;;;;;;;;;;;;;;20.62;59.02;101127.72;7284921;19;152005;-54
2022/06/06 02:12:45;;;;;;;;;;;;;;;20.69;58.85;101121.69;7284979;19;153410;-56
2022/06/06 02:15:14;;;;;;;;;;;;;;;20.65;59.05;101124.28;7284743;19;153289;-55
2022/06/06 02:17:40;;;;;;;;;;;;;;;20.61;59.57;101120.44;7285166;19;151968;-56
2022/06/06 02:20:08;;;;;;;;;;;;;;;20.59;59.29;101119.88;7284428;19;153571;-56
2022/06/06 02:22:35;;;;;;;;;;;;;;;20.60;59.39;101120.72;7283129;19;153290;-56
2022/06/06 02:25:03;;;;;;;;;;;;;;;20.57;59.31;101125.00;7290710;19;151929;-56
2022/06/06 02:27:29;;;;;;;;;;;;;;;20.58;59.59;101112.59;7282542;19;153595;-55
2022/06/06 02:29:56;;;;;;;;;;;;;;;20.60;59.73;101115.09;7282082;19;153896;-55
2022/06/06 02:32:23;;;;;;;;;;;;;;;20.59;59.85;101107.81;7283363;19;153053;-56
2022/06/06 02:34:50;;;;;;;;;;;;;;;20.59;59.90;101111.47;7284207;19;154182;-55
2022/06/06 02:37:16;;;;;;;;;;;;;;;20.62;59.52;101102.47;7284149;19;152239;-55
2022/06/06 02:39:44;;;;;;;;;;;;;;;20.62;59.42;101107.22;7283855;19;153350;-56
2022/06/06 02:42:11;;;;;;;;;;;;;;;20.59;59.59;101113.44;7282978;19;153763;-56
2022/06/06 02:44:37;;;;;;;;;;;;;;;20.57;60.05;101104.50;7281328;19;152077;-55
2022/06/06 02:47:05;;;;;;;;;;;;;;;20.57;60.03;101105.34;7290200;19;152422;-55
2022/06/06 02:49:33;;;;;;;;;;;;;;;20.59;59.94;101105.84;7283863;19;152129;-55
2022/06/06 02:52:01;;;;;;;;;;;;;;;20.61;59.91;101103.59;7283786;19;152530;-56
2022/06/06 02:54:27;;;;;;;;;;;;;;;20.58;60.05;101098.56;7283173;19;153143;-55
2022/06/06 02:56:54;;;;;;;;;;;;;;;20.58;59.74;101101.38;7282704;19;152132;-55
2022/06/06 02:59:22;;;;;;;;;;;;;;;20.57;59.70;101102.53;7281111;19;152567;-56
2022/06/06 03:01:50;;;;;;;;;;;;;;;20.55;59.95;101099.19;7279938;19;154152;-55
2022/06/06 03:04:18;;;;;;;;;;;;;;;20.57;60.21;101105.34;7280467;19;152906;-55
2022/06/06 03:07:00;;;;;;;;;;;;;;;20.58;60.05;101108.97;7283488;19;152749;-55
2022/06/06 03:09:46;;;;;;;;;;;;;;;20.56;60.00;101100.03;7290351;19;154196;-55
2022/06/06 03:12:18;;;;;;;;;;;;;;;20.56;60.20;101108.44;7283514;19;152468;-55
2022/06/06 03:15:01;;;;;;;;;;;;;;;20.55;60.28;101096.38;7282459;19;153751;-55
2022/06/06 03:20:47;;;;;;;;;;;;;;;20.58;60.12;101094.94;7282874;19;152631;-55
2022/06/06 03:23:32;;;;;;;;;;;;;;;20.56;59.80;101098.03;7281532;19;154367;-54
2022/06/06 03:26:17;;;;;;;;;;;;;;;20.56;59.87;101095.25;7281875;19;152190;-55
2022/06/06 03:28:47;;;;;;;;;;;;;;;20.57;59.82;101096.09;7281482;19;153625;-55
2022/06/06 03:31:43;;;;;;;;;;;;;;;20.54;60.00;101105.94;7281097;19;153340;-55
2022/06/06 03:34:19;;;;;;;;;;;;;;;20.53;60.08;101097.84;7286238;19;151759;-55
2022/06/06 03:36:51;;;;;;;;;;;;;;;20.52;60.39;101099.81;7280664;19;153230;-56
2022/06/06 03:39:21;;;;;;;;;;;;;;;20.52;60.26;101093.34;7283774;19;152092;-56
2022/06/06 03:41:52;;;;;;;;;;;;;;;20.53;60.55;101089.41;7286265;19;153504;-55
2022/06/06 03:44:25;;;;;;;;;;;;;;;20.52;60.28;101102.59;7283267;19;153256;-55
2022/06/06 03:47:10;;;;;;;;;;;;;;;20.51;60.44;101098.13;7288207;19;151861;-55
2022/06/06 03:49:56;;;;;;;;;;;;;;;20.52;60.41;101094.19;7290545;19;153098;-55
2022/06/06 03:52:31;;;;;;;;;;;;;;;20.52;60.25;101097.00;7285574;19;153953;-55
2022/06/06 03:55:04;;;;;;;;;;;;;;;20.55;60.50;101101.16;7287616;19;151814;-55
2022/06/06 03:57:32;;;;;;;;;;;;;;;20.56;59.93;101098.03;7294482;19;154106;-55
2022/06/06 04:00:03;;;;;;;;;;;;;;;20.55;59.98;101099.19;7289121;19;151909;-55
2022/06/06 04:02:31;;;;;;;;;;;;;;;20.53;60.10;101098.66;7288666;19;152007;-55
2022/06/06 04:05:02;;;;;;;;;;;;;;;20.53;60.41;101095.88;7284726;19;152178;-55
2022/06/06 04:07:30;;;;;;;;;;;;;;;20.53;60.41;101098.66;7287935;19;152197;-56
2022/06/06 04:09:57;;;;;;;;;;;;;;;20.52;60.77;101104.56;7289705;19;152905;-55
2022/06/06 04:12:35;;;;;;;;;;;;;;;20.50;60.33;101104.03;7286079;19;153594;-55
2022/06/06 04:15:21;;;;;;;;;;;;;;;20.50;60.49;101107.69;7285797;19;152250;-55
2022/06/06 04:18:06;;;;;;;;;;;;;;;20.49;60.69;101106.00;7287531;19;152848;-54
2022/06/06 04:20:36;;;;;;;;;;;;;;;20.48;60.51;101101.56;7293916;19;153175;-54
2022/06/06 04:23:08;;;;;;;;;;;;;;;20.49;60.96;101108.00;7288947;19;152620;-54
2022/06/06 04:25:47;;;;;;;;;;;;;;;20.50;60.87;101104.88;7284718;19;154236;-56
2022/06/06 04:28:23;;;;;;;;;;;;;;;20.50;60.98;101102.06;7287952;19;152435;-55
2022/06/06 04:30:55;;;;;;;;;;;;;;;20.51;60.81;101097.28;7284530;19;152518;-55
2022/06/06 04:33:29;;;;;;;;;;;;;;;20.55;60.63;101098.34;7287380;19;153982;-55
2022/06/06 04:36:10;;;;;;;;;;;;;;;20.53;61.00;101092.22;7287428;19;151820;-55
2022/06/06 04:38:56;;;;;;;;;;;;;;;20.54;60.94;101100.31;7286822;19;151816;-55
2022/06/06 04:41:22;;;;;;;;;;;;;;;20.56;61.04;101100.84;7290989;19;153940;-54
2022/06/06 04:44:09;;;;;;;;;;;;;;;20.58;60.79;101101.38;7287459;19;153011;-55
2022/06/06 04:46:36;;;;;;;;;;;;;;;20.61;60.66;101095.16;7284163;19;153589;-54
2022/06/06 04:49:03;;;;;;;;;;;;;;;20.65;61.24;101098.19;7288296;19;151928;-54
2022/06/06 04:51:31;;;;;;;;;;;;;;;20.68;61.45;101100.38;7284596;19;152571;-54
2022/06/06 04:53:58;;;;;;;;;;;;;;;20.73;61.71;101103.94;7286210;19;153996;-54
2022/06/06 04:56:25;;;;;;;;;;;;;;;20.79;62.04;101099.06;7287075;19;151949;-55
2022/06/06 04:58:54;;;;;;;;;;;;;;;20.84;62.30;101102.63;7282145;19;152987;-55
2022/06/06 05:01:23;;;;;;;;;;;;;;;20.92;62.08;101100.25;7285863;19;156069;-55
2022/06/06 05:03:50;;;;;;;;;;;;;;;21.00;62.23;101096.75;7293944;19;151639;-55
2022/06/06 05:06:33;;;;;;;;;;;;;;;21.07;61.96;101095.22;7285577;19;153253;-55
2022/06/06 05:09:18;;;;;;;;;;;;;;;21.15;61.87;101094.53;7284411;19;152014;-55
2022/06/06 05:11:45;;;;;;;;;;;;;;;21.24;61.66;101100.28;7286336;19;153698;-55
2022/06/06 05:14:12;;;;;;;;;;;;;;;21.33;61.26;101087.16;7284721;19;154110;-55
2022/06/06 05:16:47;;;;;;;;;;;;;;;21.41;61.47;101094.03;7285962;19;151813;-55
2022/06/06 05:19:23;;;;;;;;;;;;;;;21.48;60.92;101097.28;7284782;19;152514;-55
2022/06/06 05:21:59;;;;;;;;;;;;;;;21.55;60.77;101097.69;7283617;19;153958;-55
2022/06/06 05:24:26;;;;;;;;;;;;;;;21.65;59.92;101115.22;7284848;19;151955;-55
2022/06/06 05:27:02;;;;;;;;;;;;;;;21.72;60.19;101103.53;7292903;19;153311;-55
2022/06/06 05:29:29;;;;;;;;;;;;;;;21.78;60.03;101107.91;7284202;19;152286;-55
2022/06/06 05:32:02;;;;;;;;;;;;;;;21.86;60.03;101117.59;7285218;19;152523;-54
2022/06/06 05:34:31;;;;;;;;;;;;;;;21.93;59.71;101118.03;7284737;19;153985;-56
2022/06/06 05:37:15;;;;;;;;;;;;;;;22.01;59.48;101122.94;7286556;19;152098;-55
2022/06/06 05:39:45;;;;;;;;;;;;;;;22.06;59.20;101120.84;7286337;19;152735;-55
2022/06/06 05:42:35;;;;;;;;;;;;;;;22.13;59.46;101117.59;7284129;19;152121;-55
2022/06/06 05:45:15;;;;;;;;;;;;;;;22.21;59.12;101122.50;7281611;19;151576;-54
2022/06/06 05:48:01;;;;;;;;;;;;;;;22.29;58.67;101120.91;7284759;19;153291;-55
2022/06/06 05:50:46;;;;;;;;;;;;;;;22.34;58.17;101129.25;7291867;19;153957;-55
2022/06/06 05:53:31;;;;;;;;;;;;;;;22.41;58.47;101130.47;7284243;19;152598;-55
2022/06/06 05:56:17;;;;;;;;;;;;;;;22.46;57.88;101123.88;7284687;19;153753;-55
2022/06/06 05:59:02;;;;;;;;;;;;;;;22.52;57.46;101131.91;7280028;19;152077;-54
2022/06/06 06:01:35;;;;;;;;;;;;;;;22.57;57.47;101131.78;7285305;19;151795;-55
2022/06/06 06:04:11;;;;;;;;;;;;;;;22.60;57.13;101131.13;7281759;19;153577;-55
2022/06/06 06:06:54;;;;;;;;;;;;;;;22.65;56.67;101138.63;7285568;19;151811;-55
2022/06/06 06:09:26;;;;;;;;;;;;;;;22.69;56.98;101141.63;7284750;19;153637;-55
2022/06/06 06:12:03;;;;;;;;;;;;;;;22.71;56.77;101142.19;7283751;19;153905;-55
2022/06/06 06:14:29;;;;;;;;;;;;;;;22.74;56.64;101139.56;7292132;19;152017;-55
2022/06/06 06:16:59;;;;;;;;;;;;;;;22.78;56.53;101145.41;7284943;19;155644;-55
2022/06/06 06:19:37;;;;;;;;;;;;;;;22.79;56.27;101144.25;7285757;19;152473;-54
2022/06/06 06:22:05;;;;;;;;;;;;;;;22.82;56.20;101140.78;7285182;19;153009;-55
2022/06/06 06:24:34;;;;;;;;;;;;;;;22.81;55.40;101147.56;7282145;19;156063;-55
2022/06/06 06:27:02;;;;;;;;;;;;;;;22.81;55.25;101148.41;7282699;19;151874;-54
2022/06/06 06:29:30;;;;;;;;;;;;;;;22.80;54.58;101149.56;7258674;19;152641;-54
2022/06/06 06:32:27;;;;;;;;;;;;;;;22.81;54.87;101147.56;7262343;19;154829;-55
2022/06/06 06:34:54;;;;;;;;;;;;;;;22.80;54.61;101154.38;7280401;19;152301;-55
2022/06/06 06:37:29;;;;;;;;;;;;;;;22.70;54.50;101154.59;7289524;19;153938;-55
2022/06/06 06:40:10;;;;;;;;;;;;;;;22.66;54.63;101160.03;7282627;19;151872;-54
2022/06/06 06:42:43;;;;;;;;;;;;;;;22.59;54.52;101163.25;7279094;19;152562;-55
2022/06/06 06:45:10;;;;;;;;;;;;;;;22.58;53.96;101158.78;7277741;19;153286;-55
2022/06/06 06:47:37;;;;;;;;;;;;;;;22.57;54.17;101164.75;7278207;19;152528;-55
2022/06/06 06:50:21;;;;;;;;;;;;;;;22.56;53.81;101165.88;7281407;19;154825;-54
2022/06/06 06:52:54;;;;;;;;;;;;;;;22.57;53.61;101173.19;7281434;19;153551;-55
2022/06/06 06:55:35;;;;;;;;;;;;;;;22.58;53.73;101177.66;7282728;19;151986;-54
2022/06/06 06:58:14;;;;;;;;;;;;;;;22.55;53.69;101183.94;7286988;19;153399;-55
2022/06/06 07:00:47;;;;;;;;;;;;;;;22.53;53.31;101178.59;7281241;19;151551;-55
2022/06/06 07:09:05;;;;;;;;;;;;;;;22.46;53.49;101188.63;7284110;19;152230;-55
2022/06/06 07:11:41;;;;;;;;;;;;;;;22.51;53.56;101197.81;7283439;19;153621;-55
2022/06/06 07:14:12;;;;;;;;;;;;;;;22.36;51.65;101198.13;7283423;19;155628;-55
2022/06/06 07:16:40;;;;;;;;;;;;;;;21.90;51.12;101197.38;7289516;19;151491;-55
2022/06/06 07:19:06;;;;;;;;;;;;;;;21.80;51.63;101206.06;7288988;19;152934;-55
2022/06/06 07:21:34;;;;;;;;;;;;;;;21.94;52.29;101201.31;7294810;19;153910;-55
2022/06/06 07:24:02;;;;;;;;;;;;;;;22.01;52.23;101204.53;7289412;19;152594;-55
2022/06/06 07:26:29;;;;;;;;;;;;;;;22.03;52.33;101203.06;7287934;19;154939;-55
2022/06/06 07:28:55;;;;;;;;;;;;;;;22.03;52.64;101194.63;7290741;19;152403;-53
2022/06/06 07:31:38;;;;;;;;;;;;;;;22.01;53.09;101201.72;7289296;19;153968;-54
2022/06/06 07:34:07;;;;;;;;;;;;;;;22.02;52.74;101203.38;7286585;19;153417;-54
2022/06/06 07:36:37;;;;;;;;;;;;;;;21.99;53.28;101199.19;7288558;19;152969;-54
2022/06/06 07:39:10;;;;;;;;;;;;;;;21.99;53.32;101201.19;7289604;19;152647;-55
2022/06/06 07:42:03;;;;;;;;;;;;;;;21.96;53.12;101197.03;7285212;19;154139;-54
2022/06/06 07:44:39;;;;;;;;;;;;;;;21.97;53.51;101198.69;7296444;19;151911;-55
2022/06/06 07:47:18;;;;;;;;;;;;;;;21.95;53.57;101200.13;7287136;19;154065;-55
2022/06/06 07:49:44;;;;;;;;;;;;;;;21.94;53.45;101213.38;7287973;19;154209;-55
2022/06/06 07:52:20;;;;;;;;;;;;;;;21.93;53.77;101202.44;7288823;19;153271;-55
2022/06/06 07:54:50;;;;;;;;;;;;;;;21.92;53.76;101209.19;7287395;19;153959;-56
2022/06/06 07:57:26;;;;;;;;;;;;;;;21.92;53.50;101203.56;7287739;19;151975;-55
2022/06/06 08:00:01;;;;;;;;;;;;;;;21.88;53.68;101203.34;7286963;19;153298;-54
2022/06/06 08:02:43;;;;;;;;;;;;;;;21.87;53.48;101200.84;7286466;19;154095;-54
2022/06/06 08:05:20;;;;;;;;;;;;;;;21.86;53.62;101202.81;7288334;19;151566;-55
2022/06/06 08:08:07;;;;;;;;;;;;;;;21.84;54.19;101202.31;7295249;19;152823;-55
2022/06/06 08:10:36;;;;;;;;;;;;;;;21.84;53.64;101205.13;7286024;19;151909;-55
2022/06/06 08:13:28;;;;;;;;;;;;;;;21.82;53.83;101198.13;7284801;19;155598;-54
2022/06/06 08:16:03;;;;;;;;;;;;;;;21.80;53.61;101198.44;7287926;19;153334;-55
2022/06/06 08:18:45;;;;;;;;;;;;;;;21.77;53.83;101201.03;7287986;19;151910;-55
2022/06/06 08:21:35;;;;;;;;;;;;;;;21.75;53.84;101206.97;7288407;19;154410;-55
2022/06/06 08:24:05;;;;;;;;;;;;;;;21.72;53.86;101205.59;7283454;19;152061;-55
2022/06/06 08:26:54;;;;;;;;;;;;;;;21.73;54.32;101212.06;7284777;19;151948;-55
2022/06/06 08:29:22;;;;;;;;;;;;;;;21.73;54.07;101209.25;7287620;19;153555;-55
2022/06/06 08:31:49;;;;;;;;;;;;;;;21.69;53.84;101209.06;7293592;19;153871;-55
2022/06/06 08:34:16;;;;;;;;;;;;;;;21.69;53.83;101220.31;7285553;19;152510;-54
2022/06/06 08:36:45;;;;;;;;;;;;;;;21.66;54.16;101220.09;7286588;19;155003;-54
2022/06/06 08:39:18;;;;;;;;;;;;;;;21.65;54.22;101209.97;7288544;19;151555;-55
2022/06/06 08:41:57;;;;;;;;;;;;;;;21.64;54.03;101217.56;7287002;19;152757;-54
2022/06/06 08:44:36;;;;;;;;;;;;;;;21.64;54.18;101214.75;7285190;19;154170;-55
2022/06/06 08:47:18;;;;;;;;;;;;;;;21.64;54.03;101222.38;7287026;19;152161;-56
2022/06/06 08:53:07;;;;;;;;;;;;;;;21.60;54.03;101219.34;7286682;19;154051;-55
2022/06/06 08:55:43;;;;;;;;;;;;;;;21.59;53.93;101228.91;7292413;19;154839;-56
2022/06/06 08:58:22;;;;;;;;;;;;;;;21.58;53.99;101227.25;7283626;19;153214;-55
2022/06/06 09:01:12;;;;;;;;;;;;;;;21.54;54.17;101226.19;7287198;19;152161;-54
2022/06/06 09:04:08;;;;;;;;;;;;;;;21.58;54.12;101226.41;7286648;19;156845;-56
2022/06/06 09:06:43;;;;;;;;;;;;;;;21.54;54.09;101226.19;7283000;19;154225;-55
2022/06/06 09:09:29;;;;;;;;;;;;;;;21.55;54.22;101232.66;7287677;19;152372;-54
2022/06/06 09:11:59;;;;;;;;;;;;;;;21.51;54.12;101229.63;7284522;19;153287;-55
2022/06/06 09:14:26;;;;;;;;;;;;;;;21.51;53.84;101226.81;7286157;19;153287;-55
2022/06/06 09:16:55;;;;;;;;;;;;;;;21.47;54.33;101236.19;7293296;19;151628;-55
2022/06/06 09:20:01;;;;;;;;;;;;;;;21.46;54.17;101229.72;7286304;19;153944;-54
2022/06/06 09:22:45;;;;;;;;;;;;;;;21.43;54.14;101235.97;7280995;19;151909;-54
2022/06/06 09:25:17;;;;;;;;;;;;;;;21.47;54.04;101237.00;7281754;19;152625;-54
2022/06/06 09:28:02;;;;;;;;;;;;;;;21.50;53.89;101235.56;7282535;19;154298;-54
2022/06/06 09:30:48;;;;;;;;;;;;;;;21.46;54.10;101245.75;7284009;19;151755;-55
2022/06/06 09:33:33;;;;;;;;;;;;;;;21.43;54.04;101240.75;7285245;19;153313;-55
2022/06/06 09:36:06;;;;;;;;;;;;;;;21.40;54.25;101252.59;7285099;19;152966;-55
2022/06/06 09:38:32;;;;;;;;;;;;;;;21.38;54.04;101255.72;7281123;19;152777;-54
2022/06/06 09:41:17;;;;;;;;;;;;;;;21.36;53.93;101258.00;7291658;19;154425;-56
2022/06/06 09:43:44;;;;;;;;;;;;;;;21.35;54.17;101256.31;7284404;19;152225;-55
2022/06/06 09:46:14;;;;;;;;;;;;;;;21.35;53.96;101253.50;7283199;19;152686;-54
2022/06/06 09:48:42;;;;;;;;;;;;;;;21.34;54.40;101251.03;7284288;19;154349;-55
2022/06/06 09:51:08;;;;;;;;;;;;;;;21.34;54.70;101245.41;7286314;19;151975;-55
2022/06/06 09:53:44;;;;;;;;;;;;;;;21.33;55.03;101253.00;7285262;19;152881;-55
2022/06/06 09:59:24;;;;;;;;;;;;;;;21.32;55.19;101256.94;7283680;19;152268;-55
2022/06/06 10:01:54;;;;;;;;;;;;;;;21.30;55.14;101257.25;7281161;19;153981;-54
2022/06/06 10:04:40;;;;;;;;;;;;;;;21.29;54.95;101255.59;7290664;19;153974;-55
2022/06/06 10:07:33;;;;;;;;;;;;;;;21.32;55.40;101256.94;7278695;19;153027;-54
2022/06/06 10:10:06;;;;;;;;;;;;;;;21.29;55.29;101264.03;7280211;19;153589;-55
2022/06/06 10:12:46;;;;;;;;;;;;;;;21.29;54.94;101266.00;7282755;19;151883;-54
2022/06/06 10:15:15;;;;;;;;;;;;;;;21.28;54.85;101267.13;7280719;19;153205;-54
2022/06/06 10:18:01;;;;;;;;;;;;;;;21.27;55.12;101260.66;7276845;19;153916;-55
2022/06/06 10:20:46;;;;;;;;;;;;;;;21.25;55.09;101267.75;7281006;19;153777;-54
2022/06/06 10:23:28;;;;;;;;;;;;;;;21.27;55.24;101262.66;7280302;19;153084;-55
2022/06/06 10:25:55;;;;;;;;;;;;;;;21.25;54.85;101270.56;7280610;19;153849;-55
2022/06/06 10:28:21;;;;;;;;;;;;;;;21.23;55.32;101270.84;7290838;19;152231;-55
2022/06/06 10:31:06;;;;;;;;;;;;;;;21.35;55.04;101278.00;7283061;19;153797;-56
2022/06/06 10:33:33;;;;;;;;;;;;;;;21.48;55.88;101272.44;7284047;19;152070;-56
2022/06/06 10:36:12;;;;;;;;;;;;;;;21.54;58.32;101275.97;7283679;19;153265;-56
2022/06/06 10:38:54;;;;;;;;;;;;;;;21.50;58.40;101292.63;7250037;19;154408;-55
2022/06/06 10:41:46;;;;;;;;;;;;;;;21.44;57.42;101282.59;7279729;19;152386;-57
2022/06/06 10:44:24;;;;;;;;;;;;;;;21.42;57.31;101281.25;7279970;19;153469;-56
2022/06/06 10:47:13;;;;;;;;;;;;;;;21.41;57.68;101276.75;7274146;19;153927;-56
2022/06/06 10:49:58;;;;;;;;;;;;;;;21.36;58.52;101279.66;7278515;19;153039;-55
2022/06/06 10:52:28;;;;;;;;;;;;;;;21.34;58.57;101285.59;7284665;19;152498;-55
2022/06/06 10:55:01;;;;;;;;;;;;;;;21.33;58.25;101286.72;7278390;19;152303;-55
2022/06/06 10:57:43;;;;;;;;;;;;;;;21.32;58.83;101287.84;7276284;19;152635;-55
2022/06/06 11:00:13;;;;;;;;;;;;;;;21.31;59.17;101283.38;7275650;19;152404;-57
2022/06/06 11:02:43;;;;;;;;;;;;;;;21.30;58.49;101282.53;7280763;19;152569;-56
2022/06/06 11:05:11;;;;;;;;;;;;;;;21.28;58.57;101290.44;7277228;19;153686;-55
2022/06/06 11:07:46;;;;;;;;;;;;;;;21.27;58.41;101290.75;7275378;19;153134;-56
2022/06/06 11:10:21;;;;;;;;;;;;;;;21.25;58.48;101290.22;7279247;19;152194;-58
2022/06/06 11:13:11;;;;;;;;;;;;;;;21.23;58.59;101287.72;7279908;19;152535;-55
2022/06/06 11:16:06;;;;;;;;;;;;;;;21.23;58.33;101287.72;7284831;19;151873;-56
2022/06/06 11:18:33;;;;;;;;;;;;;;;21.22;58.31;101288.00;7279799;19;153384;-56
2022/06/06 11:21:34;;;;;;;;;;;;;;;21.22;58.02;101290.81;7276881;19;154773;-56
2022/06/06 11:24:08;;;;;;;;;;;;;;;21.20;57.78;101293.13;7274811;19;153087;-56
2022/06/06 11:26:53;;;;;;;;;;;;;;;21.19;57.74;101292.28;7274426;19;153170;-56
2022/06/06 11:29:49;;;;;;;;;;;;;;;21.18;57.57;101293.41;7277357;19;153404;-56
2022/06/06 11:32:35;;;;;;;;;;;;;;;21.18;57.41;101295.38;7278654;19;152183;-57
2022/06/06 11:35:21;;;;;;;;;;;;;;;21.18;57.50;101295.38;7279587;19;153159;-56
2022/06/06 11:38:03;;;;;;;;;;;;;;;21.15;57.24;101298.81;7284807;19;154001;-56
2022/06/06 11:40:47;;;;;;;;;;;;;;;21.15;57.63;101296.84;7279175;19;152667;-56
2022/06/06 11:43:20;;;;;;;;;;;;;;;21.14;57.33;101302.75;7277477;19;153639;-56
2022/06/06 11:45:59;;;;;;;;;;;;;;;21.13;57.49;101304.72;7278376;19;151733;-57
2022/06/06 11:48:41;;;;;;;;;;;;;;;21.11;56.89;101297.72;7277513;19;153120;-57
2022/06/06 11:51:27;;;;;;;;;;;;;;;21.12;56.82;101296.59;7278724;19;153976;-54
2022/06/06 11:53:59;;;;;;;;;;;;;;;21.11;57.17;101300.53;7278550;19;153179;-56
2022/06/06 11:56:52;;;;;;;;;;;;;;;21.11;56.76;101298.56;7278880;19;153566;-57
2022/06/06 11:59:30;;;;;;;;;;;;;;;21.11;56.65;101300.53;7270212;19;154009;-56
2022/06/06 12:01:57;;;;;;;;;;;;;;;21.09;56.76;101303.63;7289893;19;153092;-56
2022/06/06 12:04:42;;;;;;;;;;;;;;;21.09;56.78;101294.38;7284019;19;155215;-56
2022/06/06 12:07:09;;;;;;;;;;;;;;;21.08;56.67;101293.53;7282596;19;151742;-57
2022/06/06 12:09:54;;;;;;;;;;;;;;;21.08;56.31;101301.13;7285066;19;152467;-56
2022/06/06 12:12:39;;;;;;;;;;;;;;;21.07;56.84;101294.69;7282311;19;153444;-57
2022/06/06 12:15:16;;;;;;;;;;;;;;;21.06;56.50;101301.44;7284611;19;152777;-57
2022/06/06 12:17:55;;;;;;;;;;;;;;;21.05;56.27;101296.97;7284596;19;152683;-56
2022/06/06 12:20:21;;;;;;;;;;;;;;;21.04;56.61;101295.28;7282862;19;153626;-56
2022/06/06 12:22:48;;;;;;;;;;;;;;;21.03;56.47;101287.97;7283450;19;152252;-55
2022/06/06 12:25:30;;;;;;;;;;;;;;;21.02;56.58;101286.34;7291871;19;152737;-56
2022/06/06 12:28:16;;;;;;;;;;;;;;;21.05;56.10;101298.94;7283878;19;151828;-56
2022/06/06 12:30:43;;;;;;;;;;;;;;;21.03;56.55;101292.78;7285789;19;152615;-56
2022/06/06 12:33:20;;;;;;;;;;;;;;;21.02;55.89;101291.13;7284361;19;154386;-56
2022/06/06 12:35:57;;;;;;;;;;;;;;;21.02;56.15;101285.50;7286410;19;153634;-55
2022/06/06 12:38:33;;;;;;;;;;;;;;;21.02;56.34;101294.75;7285144;19;154007;-57
2022/06/06 12:41:02;;;;;;;;;;;;;;;21.03;56.10;101304.03;7282514;19;154449;-56
2022/06/06 12:43:54;;;;;;;;;;;;;;;21.03;56.11;101302.03;7285104;19;152244;-56
2022/06/06 12:46:21;;;;;;;;;;;;;;;21.00;56.20;101288.59;7283690;19;153101;-55
2022/06/06 12:49:04;;;;;;;;;;;;;;;21.02;56.40;101291.13;7290296;19;154408;-57
2022/06/06 12:51:51;;;;;;;;;;;;;;;21.02;55.88;101291.13;7285077;19;152461;-56
2022/06/06 12:54:30;;;;;;;;;;;;;;;21.00;56.28;101297.03;7284377;19;153472;-56
2022/06/06 12:56:59;;;;;;;;;;;;;;;21.00;56.13;101288.59;7280427;19;152732;-54
2022/06/06 12:59:29;;;;;;;;;;;;;;;21.00;55.89;101290.56;7282450;19;153177;-56
2022/06/06 13:02:16;;;;;;;;;;;;;;;21.00;55.69;101299.00;7278967;19;153324;-55
2022/06/06 13:04:42;;;;;;;;;;;;;;;21.00;56.17;101296.19;7284490;19;152490;-57
2022/06/06 13:07:09;;;;;;;;;;;;;;;21.00;55.91;101288.59;7283548;19;153068;-58
2022/06/06 13:09:58;;;;;;;;;;;;;;;20.99;56.14;101286.91;7283547;19;154081;-56
2022/06/06 13:12:43;;;;;;;;;;;;;;;20.99;56.13;101288.88;7288301;19;152476;-56
2022/06/06 13:15:10;;;;;;;;;;;;;;;20.99;55.92;101300.13;7284016;19;153358;-57
2022/06/06 13:17:40;;;;;;;;;;;;;;;20.99;56.00;101297.31;7284865;19;152051;-56
2022/06/06 13:20:22;;;;;;;;;;;;;;;20.98;55.94;101290.06;7284122;19;153150;-56
2022/06/06 13:23:02;;;;;;;;;;;;;;;20.99;56.03;101288.88;7283388;19;153292;-56
2022/06/06 13:25:59;;;;;;;;;;;;;;;20.98;56.00;101293.72;7284606;19;152076;-57